Time;durP1;ratioP1;P1;durP2;ratioP2;P2;SDS_P1;SDS_P2;PMS_P1;PMS_P2;Temp;Humidity;BMP_temperature;BMP_pressure;BME280_temperature;BME280_humidity;BME280_pressure;Samples;Min_cycle;Max_cycle;Signal;HPM_P1;HPM_P2
2023/12/12 15:21:00;;;;;;;6.70;2.88;;;;;;;6.25;100.00;91876.19;5160221;27;20405;-75
2023/12/12 15:23:26;;;;;;;4.95;3.30;;;;;;;6.16;100.00;91874.47;5121352;27;20031;-73
2023/12/12 15:25:52;;;;;;;7.07;3.45;;;;;;;6.08;100.00;91877.66;5145665;27;20066;-75
2023/12/12 15:28:18;;;;;;;7.85;3.20;;;;;;;6.07;100.00;91878.72;5145043;27;20062;-74
2023/12/12 15:30:43;;;;;;;5.15;3.08;;;;;;;6.04;100.00;91886.00;5128071;27;20039;-74
2023/12/12 15:33:09;;;;;;;5.18;3.25;;;;;;;6.05;100.00;91884.19;5146455;27;20037;-75
2023/12/12 15:35:35;;;;;;;5.18;3.42;;;;;;;6.10;100.00;91891.16;5146675;27;20030;-75
2023/12/12 15:38:01;;;;;;;5.90;3.17;;;;;;;6.16;100.00;91879.69;5146354;27;20330;-74
2023/12/12 15:40:26;;;;;;;5.88;3.50;;;;;;;6.19;100.00;91876.53;5145643;27;20105;-74
2023/12/12 15:42:52;;;;;;;6.10;3.10;;;;;;;6.20;100.00;91872.88;5130062;27;20528;-74
2023/12/12 15:45:18;;;;;;;4.50;2.95;;;;;;;6.23;100.00;91872.34;5140071;27;20135;-74
2023/12/12 15:47:44;;;;;;;5.10;3.38;;;;;;;6.24;100.00;91868.69;5145350;27;20038;-75
2023/12/12 15:50:10;;;;;;;7.20;4.07;;;;;;;6.17;100.00;91861.22;5146245;27;20074;-75
2023/12/12 15:52:36;;;;;;;7.63;3.90;;;;;;;6.18;100.00;91867.94;5128124;27;20375;-74
2023/12/12 15:55:02;;;;;;;6.43;3.83;;;;;;;6.13;100.00;91862.81;5143091;27;20038;-74
2023/12/12 15:57:28;;;;;;;6.15;3.60;;;;;;;6.15;100.00;91849.56;5113044;27;20019;-75
2023/12/12 15:59:54;;;;;;;5.05;3.33;;;;;;;5.98;100.00;91836.94;5143841;27;20485;-74
2023/12/12 16:02:21;;;;;;;6.60;3.30;;;;;;;5.89;100.00;91834.13;5121827;27;20035;-75
2023/12/12 16:04:47;;;;;;;4.55;3.05;;;;;;;5.97;100.00;91838.78;5143679;27;20038;-75
2023/12/12 16:07:12;;;;;;;6.82;3.40;;;;;;;5.77;100.00;91841.53;5139319;27;20057;-75
2023/12/12 16:09:38;;;;;;;4.65;2.95;;;;;;;5.71;100.00;91845.97;5121769;28;20027;-74
2023/12/12 16:12:04;;;;;;;5.15;3.28;;;;;;;5.69;100.00;91844.69;5144965;27;20064;-74
2023/12/12 16:14:30;;;;;;;5.32;3.50;;;;;;;5.67;100.00;91833.78;5123895;27;20023;-75
2023/12/12 16:16:55;;;;;;;5.57;3.35;;;;;;;5.72;100.00;91825.97;5143961;27;20391;-74
2023/12/12 16:19:25;;;;;;;5.00;3.47;;;;;;;5.71;100.00;91816.63;5135064;27;20104;-74
2023/12/12 16:21:52;;;;;;;5.10;3.15;;;;;;;5.67;100.00;91833.78;5131985;27;20039;-79
2023/12/12 16:24:17;;;;;;;4.90;3.45;;;;;;;5.60;100.00;91834.88;5120597;27;20042;-73
2023/12/12 16:26:43;;;;;;;6.65;3.70;;;;;;;5.60;100.00;91832.28;5129716;27;20030;-74
2023/12/12 16:29:09;;;;;;;7.75;4.53;;;;;;;5.60;100.00;91829.69;5140502;27;20122;-74
2023/12/12 16:31:35;;;;;;;6.13;3.97;;;;;;;5.60;100.00;91837.47;5086782;28;20050;-73
2023/12/12 16:34:02;;;;;;;6.22;3.85;;;;;;;5.61;100.00;91846.81;5106788;27;20046;-73
2023/12/12 16:36:28;;;;;;;4.90;3.67;;;;;;;5.59;100.00;91856.69;5126245;27;20066;-73
2023/12/12 16:39:03;;;;;;;8.60;3.72;;;;;;;5.59;100.00;91859.28;5090606;28;20036;-73
2023/12/12 16:41:29;;;;;;;6.82;3.83;;;;;;;5.62;100.00;91861.34;5076631;28;20489;-73
2023/12/12 16:43:55;;;;;;;7.45;4.10;;;;;;;5.79;100.00;91857.59;5123976;27;20027;-72
2023/12/12 16:46:20;;;;;;;7.18;4.13;;;;;;;5.67;100.00;91854.56;5095095;27;20049;-73
2023/12/12 16:48:47;;;;;;;5.93;3.38;;;;;;;5.62;100.00;91847.59;5125294;27;20039;-73
2023/12/12 16:51:13;;;;;;;6.72;3.90;;;;;;;5.61;100.00;91836.44;5096002;27;20115;-73
2023/12/12 16:53:39;;;;;;;5.25;3.25;;;;;;;5.63;100.00;91834.34;5115881;27;20497;-73
2023/12/12 16:56:12;;;;;;;4.47;2.95;;;;;;;5.63;100.00;91829.16;5127600;27;20035;-72
2023/12/12 16:58:44;;;;;;;6.32;3.22;;;;;;;5.66;100.00;91819.28;5096191;27;20035;-73
2023/12/12 17:01:11;;;;;;;6.47;3.30;;;;;;;5.56;100.00;91820.91;5095872;27;20035;-72
2023/12/12 17:03:37;;;;;;;4.72;3.45;;;;;;;5.56;100.00;91828.69;5096707;27;20034;-72
2023/12/12 17:06:03;;;;;;;5.50;3.20;;;;;;;5.51;100.00;91836.50;5113095;27;20110;-73
2023/12/12 17:08:32;;;;;;;5.65;3.30;;;;;;;5.46;100.00;91833.94;5130966;27;20043;-73
2023/12/12 17:10:59;;;;;;;5.15;3.28;;;;;;;5.44;100.00;91825.66;5113501;27;20088;-73
2023/12/12 17:13:25;;;;;;;5.95;3.30;;;;;;;5.43;100.00;91818.91;5092371;28;20031;-73
2023/12/12 17:15:55;;;;;;;6.13;3.42;;;;;;;5.42;100.00;91812.16;5122073;27;20078;-73
2023/12/12 17:18:21;;;;;;;7.32;4.35;;;;;;;5.38;100.00;91806.75;5128833;27;20122;-72
2023/12/12 17:20:49;;;;;;;9.85;5.03;;;;;;;5.46;100.00;91815.00;5130246;27;20582;-73
2023/12/12 17:23:19;;;;;;;6.75;3.72;;;;;;;5.39;100.00;91823.09;5125410;27;20047;-73
2023/12/12 17:25:47;;;;;;;5.53;4.20;;;;;;;5.26;100.00;91814.09;5090134;27;20088;-72
2023/12/12 17:28:14;;;;;;;6.57;4.50;;;;;;;5.18;100.00;91818.03;5103498;28;20027;-72
2023/12/12 17:30:41;;;;;;;6.63;4.82;;;;;;;5.09;100.00;91814.47;5079524;27;20043;-73
2023/12/12 17:33:07;;;;;;;12.63;8.90;;;;;;;5.09;100.00;91813.66;5104524;27;20490;-74
2023/12/12 17:35:32;;;;;;;10.80;6.40;;;;;;;5.04;100.00;91817.06;5119587;27;20039;-75
2023/12/12 17:37:59;;;;;;;8.20;5.25;;;;;;;5.05;100.00;91810.84;5108156;27;20039;-75
2023/12/12 17:40:24;;;;;;;9.02;5.18;;;;;;;5.10;100.00;91813.41;5115865;27;20066;-75
2023/12/12 17:42:50;;;;;;;7.78;5.22;;;;;;;5.12;100.00;91805.34;5124561;27;20086;-76
2023/12/12 17:45:19;;;;;;;7.70;5.05;;;;;;;5.14;100.00;91805.88;5124770;27;20451;-75
2023/12/12 17:47:45;;;;;;;8.07;5.30;;;;;;;5.10;100.00;91805.63;5091827;27;20065;-75
2023/12/12 17:50:14;;;;;;;13.43;7.22;;;;;;;5.21;100.00;91806.34;5106917;27;20486;-75
2023/12/12 17:52:41;;;;;;;10.10;5.95;;;;;;;5.12;100.00;91811.31;5120968;27;20064;-74
2023/12/12 17:55:08;;;;;;;8.25;5.18;;;;;;;5.16;100.00;91808.97;5123125;27;20031;-77
2023/12/12 17:57:34;;;;;;;7.40;5.18;;;;;;;5.18;100.00;91802.47;5128029;27;20031;-76
2023/12/12 17:59:59;;;;;;;13.55;8.77;;;;;;;5.21;100.00;91793.38;5122272;27;20054;-75
2023/12/12 18:02:25;;;;;;;14.60;8.40;;;;;;;5.26;100.00;91782.16;5102138;27;20038;-77
2023/12/12 18:04:51;;;;;;;12.30;6.28;;;;;;;5.28;100.00;91775.66;5100155;27;20087;-76
2023/12/12 18:07:18;;;;;;;8.13;5.45;;;;;;;5.31;100.00;91779.53;5127025;27;20099;-75
2023/12/12 18:09:44;;;;;;;8.43;5.43;;;;;;;5.33;100.00;91787.81;5121032;27;20031;-75
2023/12/12 18:12:09;;;;;;;7.55;5.32;;;;;;;5.35;100.00;91786.50;5118745;27;20038;-75
2023/12/12 18:14:35;;;;;;;8.55;5.60;;;;;;;5.38;100.00;91782.59;5127999;27;20038;-76
2023/12/12 18:17:03;;;;;;;7.72;5.20;;;;;;;5.37;100.00;91783.66;5119353;27;20088;-77
2023/12/12 18:19:31;;;;;;;7.75;5.60;;;;;;;5.36;100.00;91792.50;5113993;27;20128;-76
2023/12/12 18:21:57;;;;;;;7.07;4.82;;;;;;;5.36;100.00;91795.84;5121907;27;20351;-75
2023/12/12 18:44:06;;;;;;;7.43;4.55;;;;;;;5.37;100.00;91740.28;5890771;23;20053;-77
2023/12/12 18:46:31;;;;;;;7.75;5.43;;;;;;;5.34;100.00;91732.28;4993811;28;20473;-81
2023/12/12 18:48:57;;;;;;;8.05;4.07;;;;;;;5.31;100.00;91730.22;4943013;28;20124;-80
2023/12/12 18:51:24;;;;;;;5.85;4.05;;;;;;;5.36;100.00;91727.59;4989443;28;20042;-80
2023/12/12 18:53:50;;;;;;;6.10;3.90;;;;;;;5.43;100.00;91728.84;4979369;28;20383;-79
2023/12/12 18:56:16;;;;;;;6.65;4.00;;;;;;;5.36;100.00;91720.59;4977644;28;20034;-79
2023/12/12 18:58:43;;;;;;;6.07;4.10;;;;;;;5.28;100.00;91712.63;4950733;28;20039;-80
2023/12/12 19:01:10;;;;;;;10.93;4.80;;;;;;;5.30;100.00;91719.06;4967275;28;20070;-79
2023/12/12 19:03:35;;;;;;;7.43;4.75;;;;;;;5.25;100.00;91713.16;4969402;28;20023;-81
2023/12/12 19:06:02;;;;;;;6.65;4.65;;;;;;;5.22;100.00;91707.47;4957736;28;20061;-81
2023/12/12 19:08:28;;;;;;;7.15;4.90;;;;;;;5.21;100.00;91703.31;4951373;28;20510;-82
2023/12/12 19:10:54;;;;;;;8.25;5.90;;;;;;;5.13;100.00;91700.53;4964691;28;20034;-80
2023/12/12 19:13:19;;;;;;;8.68;5.32;;;;;;;5.19;100.00;91713.19;4984196;28;20042;-81
2023/12/12 19:15:47;;;;;;;7.78;5.50;;;;;;;5.21;100.00;91712.94;4993134;28;20438;-81
2023/12/12 19:18:13;;;;;;;7.15;5.50;;;;;;;5.22;100.00;91727.44;4967034;28;20043;-81
2023/12/12 19:20:39;;;;;;;10.05;5.35;;;;;;;5.22;100.00;91717.84;4967543;28;20030;-80
2023/12/12 19:23:07;;;;;;;7.25;4.55;;;;;;;5.25;100.00;91715.75;4954236;28;20049;-82
2023/12/12 19:25:36;;;;;;;7.32;4.40;;;;;;;5.29;100.00;91732.31;4967930;28;20446;-81
2023/12/12 19:28:04;;;;;;;6.20;4.28;;;;;;;5.33;100.00;91715.94;4971770;28;20489;-81
2023/12/12 19:30:30;;;;;;;9.13;6.10;;;;;;;5.36;100.00;91701.66;4980673;28;20055;-81
2023/12/12 19:32:55;;;;;;;8.82;5.68;;;;;;;5.34;100.00;91712.31;4967702;28;20055;-82
2023/12/12 19:35:23;;;;;;;9.80;6.22;;;;;;;5.33;100.00;91715.16;4966538;28;20031;-81
2023/12/12 19:37:51;;;;;;;9.60;5.70;;;;;;;5.32;100.00;91705.84;4965646;28;20043;-81
2023/12/12 19:40:17;;;;;;;7.90;5.03;;;;;;;5.39;100.00;91701.09;4972409;28;20030;-81
2023/12/12 19:42:43;;;;;;;6.97;4.15;;;;;;;5.29;100.00;91683.00;4954073;28;20426;-85
2023/12/12 19:45:10;;;;;;;6.55;4.05;;;;;;;5.15;100.00;91672.50;4955344;28;20051;-84
2023/12/12 19:47:36;;;;;;;6.93;4.60;;;;;;;5.00;100.00;91676.75;4949463;28;20051;-84
2023/12/12 19:50:06;;;;;;;7.32;4.93;;;;;;;4.91;100.00;91688.75;4965302;28;20046;-82
2023/12/12 19:52:32;;;;;;;6.05;4.50;;;;;;;4.92;100.00;91695.47;4974322;28;20510;-82
2023/12/12 19:54:58;;;;;;;7.90;5.53;;;;;;;4.92;100.00;91697.31;4979989;28;20035;-83
2023/12/12 19:57:26;;;;;;;18.92;11.75;;;;;;;4.85;100.00;91709.81;4953501;28;20174;-84
2023/12/12 19:59:51;;;;;;;15.82;10.07;;;;;;;4.83;100.00;91712.66;4947846;28;20039;-84
2023/12/12 20:02:17;;;;;;;9.73;6.85;;;;;;;4.83;100.00;91691.16;4961387;28;20049;-84
2023/12/12 20:04:43;;;;;;;7.25;5.00;;;;;;;5.11;100.00;91676.66;4961353;28;20039;-82
2023/12/12 20:07:13;;;;;;;8.93;5.30;;;;;;;4.89;100.00;91671.94;4966418;28;20023;-86
2023/12/12 20:09:45;;;;;;;8.95;5.50;;;;;;;4.83;100.00;91685.97;4950740;28;20114;-84
2023/12/12 20:12:10;;;;;;;7.97;5.43;;;;;;;4.78;100.00;91697.91;4972642;28;20039;-83
2023/12/12 20:14:37;;;;;;;9.60;4.97;;;;;;;4.79;100.00;91685.72;4978601;28;20405;-83
2023/12/12 20:17:04;;;;;;;9.02;5.53;;;;;;;4.77;100.00;91680.03;4980684;28;20085;-83
2023/12/12 20:19:29;;;;;;;8.02;6.10;;;;;;;4.70;100.00;91682.91;4973957;28;20045;-82
2023/12/12 20:21:55;;;;;;;9.23;5.70;;;;;;;4.89;100.00;91677.13;4973378;28;20043;-84
2023/12/12 20:24:20;;;;;;;8.02;6.00;;;;;;;4.89;100.00;91679.72;4955147;28;20043;-83
2023/12/12 20:26:46;;;;;;;9.70;5.20;;;;;;;4.87;100.00;91671.41;4966038;28;20026;-82
2023/12/12 20:29:11;;;;;;;14.48;6.47;;;;;;;4.84;100.00;91669.34;4957023;28;20050;-83
2023/12/12 20:31:38;;;;;;;9.13;6.63;;;;;;;4.80;100.00;91667.31;4955983;28;20039;-83
2023/12/12 20:34:03;;;;;;;11.20;7.72;;;;;;;4.80;100.00;91662.13;4971538;28;20046;-83
2023/12/12 20:36:29;;;;;;;12.13;6.75;;;;;;;4.81;100.00;91662.88;4970363;28;20043;-83
2023/12/12 20:38:55;;;;;;;8.05;5.80;;;;;;;4.82;100.00;91654.09;4971605;28;20621;-84
2023/12/12 20:41:20;;;;;;;9.15;5.65;;;;;;;4.84;100.00;91653.78;4968343;28;20057;-84
2023/12/12 20:43:47;;;;;;;7.90;4.80;;;;;;;4.87;100.00;91648.09;4979130;28;20039;-82
2023/12/12 20:46:13;;;;;;;7.03;5.10;;;;;;;4.90;100.00;91650.13;4930499;29;20562;-84
2023/12/12 20:48:38;;;;;;;6.82;4.82;;;;;;;4.90;100.00;91644.94;4944726;29;20043;-83
2023/12/12 20:51:05;;;;;;;8.95;4.63;;;;;;;4.93;100.00;91628.81;4937063;29;20047;-83
2023/12/12 20:53:32;;;;;;;6.53;4.25;;;;;;;4.96;100.00;91623.09;4938510;29;20043;-82
2023/12/12 20:55:57;;;;;;;5.68;3.60;;;;;;;4.97;100.00;91620.22;4930774;29;20044;-81
2023/12/12 20:58:23;;;;;;;5.57;3.38;;;;;;;4.99;100.00;91612.94;4933456;29;20462;-80
2023/12/12 21:00:48;;;;;;;7.38;4.70;;;;;;;4.89;100.00;91607.09;4930108;29;20036;-80
2023/12/12 21:03:14;;;;;;;7.65;5.03;;;;;;;4.85;100.00;91617.22;4933218;29;20020;-79
2023/12/12 21:05:40;;;;;;;5.97;4.15;;;;;;;4.86;100.00;91616.16;4930469;29;20039;-80
2023/12/12 21:08:05;;;;;;;6.05;4.40;;;;;;;4.87;100.00;91609.94;4937772;29;20256;-80
2023/12/12 21:10:31;;;;;;;7.05;4.10;;;;;;;4.90;100.00;91613.81;4933729;29;20031;-80
2023/12/12 21:12:56;;;;;;;7.63;3.70;;;;;;;4.92;100.00;91625.47;4944334;29;20058;-81
2023/12/12 21:15:24;;;;;;;6.47;3.60;;;;;;;4.94;100.00;91648.53;4935787;29;20044;-81
2023/12/12 21:17:50;;;;;;;5.55;3.40;;;;;;;4.97;100.00;91653.19;4941362;28;20038;-81
2023/12/12 21:20:17;;;;;;;5.35;3.20;;;;;;;4.97;100.00;91646.16;4942630;29;20049;-79
2023/12/12 21:22:43;;;;;;;5.13;3.45;;;;;;;4.98;100.00;91657.34;4918568;29;20051;-80
2023/12/12 21:25:09;;;;;;;6.63;3.65;;;;;;;4.93;100.00;91639.19;4938099;29;20301;-79
2023/12/12 21:27:34;;;;;;;9.57;5.75;;;;;;;4.95;100.00;91639.69;4935721;29;20054;-81
2023/12/12 21:30:01;;;;;;;8.27;5.53;;;;;;;4.85;100.00;91647.56;4945277;29;20511;-79
2023/12/12 21:32:26;;;;;;;7.07;5.00;;;;;;;4.83;100.00;91639.28;4942088;29;20043;-80
2023/12/12 21:34:52;;;;;;;7.43;5.10;;;;;;;4.79;100.00;91623.50;4944378;29;20128;-81
2023/12/12 21:37:18;;;;;;;6.75;4.25;;;;;;;4.82;100.00;91632.53;4945049;29;20051;-79
2023/12/12 21:39:44;;;;;;;6.03;3.67;;;;;;;4.85;100.00;91647.56;4956154;28;20078;-80
2023/12/12 21:42:09;;;;;;;6.07;3.15;;;;;;;4.87;100.00;91653.28;4938092;29;20031;-81
2023/12/12 21:44:35;;;;;;;5.00;3.50;;;;;;;4.84;100.00;91649.41;4940376;29;20123;-79
2023/12/12 21:47:04;;;;;;;5.25;3.53;;;;;;;4.89;100.00;91646.00;4922602;29;20080;-81
2023/12/12 21:49:29;;;;;;;4.85;3.50;;;;;;;4.90;100.00;91629.38;4931442;29;20040;-80
2023/12/12 21:51:55;;;;;;;7.00;4.28;;;;;;;4.89;100.00;91613.03;4916477;29;20044;-81
2023/12/12 21:54:21;;;;;;;5.95;4.00;;;;;;;4.88;100.00;91613.31;4919609;29;20043;-81
2023/12/12 21:56:49;;;;;;;5.28;3.58;;;;;;;4.89;100.00;91597.50;4927602;29;20457;-81
2023/12/12 21:59:16;;;;;;;5.70;3.92;;;;;;;4.80;100.00;91566.19;4931494;29;20384;-80
2023/12/12 22:01:45;;;;;;;4.82;3.20;;;;;;;4.86;100.00;91574.66;4923851;29;20048;-78
2023/12/12 22:04:11;;;;;;;5.50;3.25;;;;;;;4.89;100.00;91566.38;4923623;29;20040;-80
2023/12/12 22:06:40;;;;;;;6.45;4.00;;;;;;;4.86;100.00;91566.13;4932325;29;20040;-80
2023/12/12 22:09:06;;;;;;;5.88;4.28;;;;;;;4.70;100.00;91561.06;4925937;29;20049;-79
2023/12/12 22:11:32;;;;;;;6.78;4.53;;;;;;;4.71;100.00;91561.88;4926786;29;20099;-79
2023/12/12 22:13:58;;;;;;;6.72;4.85;;;;;;;4.65;100.00;91555.16;4926315;29;20071;-81
